Martin Explorer — WDB3168 — position and weather

sailwx.info

Track history (hours):
 
Tides and Currents Weather Stations Pressure Air Temp Water Temp Dewpoint Dewpoint Depression Visibility Wind Speed Wind Dir Waves Ship Positions

Martin Explorer

Owner: CF Martin Sulphur LP, La Porte, TX. More information available from US FCC via Universal Licensing System and Coast Guard Vessel Documentation Center.

Last reported at 2018-May-12 18:06 UTC. Time now 2018-May-22 17:39 UTC.
Position N 27°37' W 082°41'.
Warning: this ship's position is 9 days out of date.

Length 158 m; draft 7.3 m.

Type: Towing. MMSI: 366884140.

Date/timePositionNaut miles runAvg speedWind from/ knotsBaromVisibWave heightAir tempDewpointWater temp
2018-May-12 18:06N 27°37' W 082°41'211.8
2018-May-12 17:58N 27°38' W 082°39'511.5
2018-May-12 17:30N 27°41' W 082°34'510.9
2018-May-12 17:00N 27°46' W 082°31'510.3
2018-May-12 16:31N 27°49' W 082°27'4 7.5
2018-May-12 16:01N 27°51' W 082°24'0 0.1
2018-May-12 15:29N 27°51' W 082°24'0 0.0
2018-May-12 14:58N 27°51' W 082°24'0 0.0
2018-May-12 14:22N 27°51' W 082°24'0 0.0
2018-May-12 13:58N 27°51' W 082°24'0 0.0
2018-May-12 13:28N 27°51' W 082°24'0 0.0
2018-May-12 12:58N 27°51' W 082°24'0 0.0
2018-May-12 12:22N 27°51' W 082°24'0 0.0
2018-May-12 11:58N 27°51' W 082°24'0 0.0
2018-May-12 11:28N 27°51' W 082°24'0 0.0
2018-May-12 10:58N 27°51' W 082°24'0 0.0
2018-May-12 10:28N 27°51' W 082°24'0 0.0
2018-May-12 09:58N 27°51' W 082°24'0 0.0
2018-May-12 09:25N 27°51' W 082°24'0 0.0
2018-May-12 08:58N 27°51' W 082°24'0 0.0
2018-May-12 08:28N 27°51' W 082°24'0 0.0
2018-May-12 07:58N 27°51' W 082°24'0 0.0
2018-May-12 07:28N 27°51' W 082°24'0 0.0
2018-May-12 06:58N 27°51' W 082°24'0 0.0
2018-May-12 06:28N 27°51' W 082°24'0 0.0
2018-May-12 05:58N 27°51' W 082°24'0 0.0
2018-May-12 05:28N 27°51' W 082°24'0 0.0
2018-May-12 04:55N 27°51' W 082°24'0 0.0
2018-May-12 04:28N 27°51' W 082°24'0 0.0
2018-May-12 03:58N 27°51' W 082°24'0 0.0
2018-May-12 03:28N 27°51' W 082°24'0 0.0
2018-May-12 02:58N 27°51' W 082°24'0 0.0
2018-May-12 02:28N 27°51' W 082°24'0 0.0
2018-May-12 01:58N 27°51' W 082°24'0 0.0
2018-May-12 01:28N 27°51' W 082°24'0 0.0
2018-May-12 00:58N 27°51' W 082°24'0 0.0
2018-May-12 00:31N 27°51' W 082°24'0 0.0
2018-May-12 00:01N 27°51' W 082°24'0 0.2
2018-May-11 23:30N 27°51' W 082°24'3 5.7
2018-May-11 23:00N 27°50' W 082°27'4 8.7
2018-May-11 22:30N 27°47' W 082°30'401 9.6
2018-May-10 04:36N 27°54' W 090°03'110.7
2018-May-10 04:30N 27°54' W 090°04'10710.1
2018-May-09 17:54N 28°04' W 092°06'1010.1
2018-May-09 16:56N 28°07' W 092°16'410.1
2018-May-09 16:30N 28°09' W 092°20'510.1
2018-May-09 16:00N 28°10' W 092°26'510.1
2018-May-09 15:30N 28°12' W 092°31'510.0
2018-May-09 15:00N 28°14' W 092°36'510.1
2018-May-09 14:30N 28°16' W 092°42'1110.2
2018-May-09 13:24N 28°19' W 092°54'410.4
2018-May-09 13:00N 28°21' W 092°58'510.0
2018-May-09 12:30N 28°24' W 093°03'610.5
2018-May-09 11:58N 28°29' W 093°06'510.3
2018-May-09 11:30N 28°32' W 093°10'510.1
2018-May-09 11:00N 28°36' W 093°13'510.1
2018-May-09 10:30N 28°40' W 093°17'510.3
2018-May-09 10:00N 28°44' W 093°20'510.3
2018-May-09 09:30N 28°48' W 093°24'510.2
2018-May-09 09:00N 28°53' W 093°27'510.3
2018-May-09 08:30N 28°57' W 093°31'510.3
2018-May-09 08:00N 29°01' W 093°35'510.3
2018-May-09 07:30N 29°05' W 093°38'5 9.6
2018-May-09 07:00N 29°09' W 093°40'5 9.8
2018-May-09 06:30N 29°14' W 093°40'510.1
2018-May-09 06:00N 29°19' W 093°40'510.1
2018-May-09 05:30N 29°24' W 093°40'5 9.8
2018-May-09 05:00N 29°29' W 093°40'510.1
2018-May-09 04:30N 29°33' W 093°44'510.0
2018-May-09 04:00N 29°36' W 093°48'510.0
2018-May-09 03:30N 29°41' W 093°50'5 9.5
2018-May-09 03:00N 29°45' W 093°53'4 8.4
2018-May-09 02:30N 29°48' W 093°57'4 7.5
2018-May-09 02:00N 29°51' W 093°57'4 7.8
2018-May-09 01:30N 29°54' W 093°54'4 8.0
2018-May-09 01:00N 29°58' W 093°51'4 8.2
2018-May-09 00:30N 29°59' W 093°56'3 6.5
2018-May-09 00:00N 30°01' W 093°59'3 6.6
2018-May-08 23:30N 30°02' W 094°02'0 0.6
2018-May-08 22:59N 30°02' W 094°03'0 0.0
2018-May-08 22:29N 30°02' W 094°03'0 0.0
2018-May-08 21:59N 30°02' W 094°03'0 0.0
2018-May-08 21:29N 30°02' W 094°03'0 0.0
2018-May-08 20:59N 30°02' W 094°03'0 0.0
2018-May-08 20:29N 30°02' W 094°03'0 0.0
2018-May-08 19:59N 30°02' W 094°03'0 0.0
2018-May-08 19:29N 30°02' W 094°03'0 0.0
2018-May-08 18:56N 30°02' W 094°03'0 0.0
2018-May-08 18:29N 30°02' W 094°03'0 0.0
2018-May-08 17:59N 30°02' W 094°03'0 0.0
2018-May-08 17:29N 30°02' W 094°03'0 0.0
2018-May-08 16:59N 30°02' W 094°03'0 0.0
2018-May-08 16:29N 30°02' W 094°03'0 0.0
2018-May-08 15:59N 30°02' W 094°03'0 0.0
2018-May-08 15:29N 30°02' W 094°03'0 0.0
2018-May-08 14:59N 30°02' W 094°03'0 0.0
2018-May-08 14:29N 30°02' W 094°03'0 0.0
2018-May-08 13:59N 30°02' W 094°03'0 0.0
2018-May-08 13:29N 30°02' W 094°03'0 0.0
2018-May-08 12:59N 30°02' W 094°03'0 0.0
2018-May-08 12:29N 30°02' W 094°03'0 0.0
2018-May-08 11:59N 30°02' W 094°03'0 0.0
2018-May-08 11:29N 30°02' W 094°03'0 1.0
2018-May-08 11:01N 30°02' W 094°02'3 6.7
2018-May-08 10:30N 30°01' W 093°59'4 7.7
2018-May-08 10:01N 29°59' W 093°55'4 7.5
2018-May-08 09:30N 29°56' W 093°52'5 9.5
2018-May-08 09:00N 29°53' W 093°55'4 8.4
2018-May-08 08:31N 29°49' W 093°57'4 7.8
2018-May-08 08:00N 29°46' W 093°55'4 8.2
2018-May-08 07:31N 29°43' W 093°51'5 9.4
2018-May-08 07:01N 29°39' W 093°50'510.3
2018-May-08 06:30N 29°35' W 093°46'510.8
2018-May-08 06:00N 29°31' W 093°41'510.5
2018-May-08 05:30N 29°26' W 093°40'611.6
2018-May-08 05:00N 29°20' W 093°40'611.9
2018-May-08 04:31N 29°14' W 093°40'611.9
2018-May-08 04:00N 29°08' W 093°40'612.4
2018-May-08 03:30N 29°02' W 093°39'612.5
2018-May-08 03:00N 28°56' W 093°37'611.6
2018-May-08 02:30N 28°50' W 093°35'612.1
2018-May-08 02:00N 28°49' W 093°28'611.9
2018-May-08 01:29N 28°47' W 093°22'612.3
2018-May-08 01:01N 28°42' W 093°17'712.2
2018-May-08 00:28N 28°37' W 093°13'2011.5
2018-May-07 22:43N 28°21' W 092°59'311.7
2018-May-07 22:28N 28°20' W 092°56'711.7
2018-May-07 21:52N 28°17' W 092°48'7411.2
2018-May-07 15:17N 28°01' W 091°27'511.6
2018-May-07 14:52N 28°01' W 091°21'45811.7
2018-May-05 23:50N 27°36' W 082°44'412.5
2018-May-05 23:28N 27°37' W 082°40'612.0
2018-May-05 23:00N 27°41' W 082°35'611.4
2018-May-05 22:30N 27°46' W 082°31'510.3
2018-May-05 22:01N 27°49' W 082°27'510.8
2018-May-05 21:30N 27°54' W 082°26'1 2.1
2018-May-05 21:01N 27°54' W 082°25'0 0.0
2018-May-05 20:30N 27°54' W 082°25'0 0.0
2018-May-05 20:00N 27°54' W 082°25'0 0.0
2018-May-05 19:31N 27°54' W 082°25'0 0.0
2018-May-05 19:00N 27°54' W 082°25'0 0.0
2018-May-05 18:31N 27°54' W 082°25'0 0.0
2018-May-05 18:01N 27°54' W 082°25'0 0.0
2018-May-05 17:31N 27°54' W 082°25'0 0.0
2018-May-05 17:00N 27°54' W 082°25'0 0.0
2018-May-05 16:30N 27°54' W 082°25'0 0.0
2018-May-05 16:01N 27°54' W 082°25'0 0.0
2018-May-05 15:30N 27°54' W 082°25'0 0.0
2018-May-05 15:00N 27°54' W 082°25'0 0.0
2018-May-05 14:28N 27°54' W 082°25'0 0.0
2018-May-05 14:00N 27°54' W 082°25'0 0.0
2018-May-05 13:30N 27°54' W 082°25'0 0.0
2018-May-05 13:00N 27°54' W 082°25'0 0.0
2018-May-05 12:31N 27°54' W 082°25'0 0.0
2018-May-05 12:00N 27°54' W 082°25'0 0.0
2018-May-05 11:29N 27°54' W 082°25'0 0.0
2018-May-05 11:00N 27°54' W 082°25'0 0.0
2018-May-05 10:31N 27°54' W 082°25'0 0.0
2018-May-05 10:01N 27°54' W 082°25'0 0.0
2018-May-05 09:30N 27°54' W 082°25'0 0.0
2018-May-05 09:00N 27°54' W 082°25'1 1.3
2018-May-05 08:30N 27°54' W 082°25'4 6.9
2018-May-05 08:00N 27°51' W 082°27'5 9.3
2018-May-05 07:31N 27°47' W 082°30'  
2018-May-02 23:47N 27°42' W 092°49'1610.0
2018-May-02 22:09N 27°42' W 093°08'  
Track history (hours):
 
Tides and Currents Weather Stations Pressure Air Temp Water Temp Dewpoint Dewpoint Depression Visibility Wind Speed Wind Dir Waves Ship Positions

Martin Explorer

Owner: CF Martin Sulphur LP, La Porte, TX. More information available from US FCC via Universal Licensing System and Coast Guard Vessel Documentation Center.

Last reported at 2018-May-12 18:06 UTC. Time now 2018-May-22 17:39 UTC.
Position N 27°37' W 082°41'.
Warning: this ship's position is 9 days out of date.

Length 158 m; draft 7.3 m.

Type: Towing. MMSI: 366884140.

Date/timePositionNaut miles runAvg speedWind from/ knotsBaromVisibWave heightAir tempDewpointWater temp
2018-May-12 18:06N 27°37' W 082°41'211.8
2018-May-12 17:58N 27°38' W 082°39'511.5
2018-May-12 17:30N 27°41' W 082°34'510.9
2018-May-12 17:00N 27°46' W 082°31'510.3
2018-May-12 16:31N 27°49' W 082°27'4 7.5
2018-May-12 16:01N 27°51' W 082°24'0 0.1
2018-May-12 15:29N 27°51' W 082°24'0 0.0
2018-May-12 14:58N 27°51' W 082°24'0 0.0
2018-May-12 14:22N 27°51' W 082°24'0 0.0
2018-May-12 13:58N 27°51' W 082°24'0 0.0
2018-May-12 13:28N 27°51' W 082°24'0 0.0
2018-May-12 12:58N 27°51' W 082°24'0 0.0
2018-May-12 12:22N 27°51' W 082°24'0 0.0
2018-May-12 11:58N 27°51' W 082°24'0 0.0
2018-May-12 11:28N 27°51' W 082°24'0 0.0
2018-May-12 10:58N 27°51' W 082°24'0 0.0
2018-May-12 10:28N 27°51' W 082°24'0 0.0
2018-May-12 09:58N 27°51' W 082°24'0 0.0
2018-May-12 09:25N 27°51' W 082°24'0 0.0
2018-May-12 08:58N 27°51' W 082°24'0 0.0
2018-May-12 08:28N 27°51' W 082°24'0 0.0
2018-May-12 07:58N 27°51' W 082°24'0 0.0
2018-May-12 07:28N 27°51' W 082°24'0 0.0
2018-May-12 06:58N 27°51' W 082°24'0 0.0
2018-May-12 06:28N 27°51' W 082°24'0 0.0
2018-May-12 05:58N 27°51' W 082°24'0 0.0
2018-May-12 05:28N 27°51' W 082°24'0 0.0
2018-May-12 04:55N 27°51' W 082°24'0 0.0
2018-May-12 04:28N 27°51' W 082°24'0 0.0
2018-May-12 03:58N 27°51' W 082°24'0 0.0
2018-May-12 03:28N 27°51' W 082°24'0 0.0
2018-May-12 02:58N 27°51' W 082°24'0 0.0
2018-May-12 02:28N 27°51' W 082°24'0 0.0
2018-May-12 01:58N 27°51' W 082°24'0 0.0
2018-May-12 01:28N 27°51' W 082°24'0 0.0
2018-May-12 00:58N 27°51' W 082°24'0 0.0
2018-May-12 00:31N 27°51' W 082°24'0 0.0
2018-May-12 00:01N 27°51' W 082°24'0 0.2
2018-May-11 23:30N 27°51' W 082°24'3 5.7
2018-May-11 23:00N 27°50' W 082°27'4 8.7
2018-May-11 22:30N 27°47' W 082°30'401 9.6
2018-May-10 04:36N 27°54' W 090°03'110.7
2018-May-10 04:30N 27°54' W 090°04'10710.1
2018-May-09 17:54N 28°04' W 092°06'1010.1
2018-May-09 16:56N 28°07' W 092°16'410.1
2018-May-09 16:30N 28°09' W 092°20'510.1
2018-May-09 16:00N 28°10' W 092°26'510.1
2018-May-09 15:30N 28°12' W 092°31'510.0
2018-May-09 15:00N 28°14' W 092°36'510.1
2018-May-09 14:30N 28°16' W 092°42'1110.2
2018-May-09 13:24N 28°19' W 092°54'410.4
2018-May-09 13:00N 28°21' W 092°58'510.0
2018-May-09 12:30N 28°24' W 093°03'610.5
2018-May-09 11:58N 28°29' W 093°06'510.3
2018-May-09 11:30N 28°32' W 093°10'510.1
2018-May-09 11:00N 28°36' W 093°13'510.1
2018-May-09 10:30N 28°40' W 093°17'510.3
2018-May-09 10:00N 28°44' W 093°20'510.3
2018-May-09 09:30N 28°48' W 093°24'510.2
2018-May-09 09:00N 28°53' W 093°27'510.3
2018-May-09 08:30N 28°57' W 093°31'510.3
2018-May-09 08:00N 29°01' W 093°35'510.3
2018-May-09 07:30N 29°05' W 093°38'5 9.6
2018-May-09 07:00N 29°09' W 093°40'5 9.8
2018-May-09 06:30N 29°14' W 093°40'510.1
2018-May-09 06:00N 29°19' W 093°40'510.1
2018-May-09 05:30N 29°24' W 093°40'5 9.8
2018-May-09 05:00N 29°29' W 093°40'510.1
2018-May-09 04:30N 29°33' W 093°44'510.0
2018-May-09 04:00N 29°36' W 093°48'510.0
2018-May-09 03:30N 29°41' W 093°50'5 9.5
2018-May-09 03:00N 29°45' W 093°53'4 8.4
2018-May-09 02:30N 29°48' W 093°57'4 7.5
2018-May-09 02:00N 29°51' W 093°57'4 7.8
2018-May-09 01:30N 29°54' W 093°54'4 8.0
2018-May-09 01:00N 29°58' W 093°51'4 8.2
2018-May-09 00:30N 29°59' W 093°56'3 6.5
2018-May-09 00:00N 30°01' W 093°59'3 6.6
2018-May-08 23:30N 30°02' W 094°02'0 0.6
2018-May-08 22:59N 30°02' W 094°03'0 0.0
2018-May-08 22:29N 30°02' W 094°03'0 0.0
2018-May-08 21:59N 30°02' W 094°03'0 0.0
2018-May-08 21:29N 30°02' W 094°03'0 0.0
2018-May-08 20:59N 30°02' W 094°03'0 0.0
2018-May-08 20:29N 30°02' W 094°03'0 0.0
2018-May-08 19:59N 30°02' W 094°03'0 0.0
2018-May-08 19:29N 30°02' W 094°03'0 0.0
2018-May-08 18:56N 30°02' W 094°03'0 0.0
2018-May-08 18:29N 30°02' W 094°03'0 0.0
2018-May-08 17:59N 30°02' W 094°03'0 0.0
2018-May-08 17:29N 30°02' W 094°03'0 0.0
2018-May-08 16:59N 30°02' W 094°03'0 0.0
2018-May-08 16:29N 30°02' W 094°03'0 0.0
2018-May-08 15:59N 30°02' W 094°03'0 0.0
2018-May-08 15:29N 30°02' W 094°03'0 0.0
2018-May-08 14:59N 30°02' W 094°03'0 0.0
2018-May-08 14:29N 30°02' W 094°03'0 0.0
2018-May-08 13:59N 30°02' W 094°03'0 0.0
2018-May-08 13:29N 30°02' W 094°03'0 0.0
2018-May-08 12:59N 30°02' W 094°03'0 0.0
2018-May-08 12:29N 30°02' W 094°03'0 0.0
2018-May-08 11:59N 30°02' W 094°03'0 0.0
2018-May-08 11:29N 30°02' W 094°03'0 1.0
2018-May-08 11:01N 30°02' W 094°02'3 6.7
2018-May-08 10:30N 30°01' W 093°59'4 7.7
2018-May-08 10:01N 29°59' W 093°55'4 7.5
2018-May-08 09:30N 29°56' W 093°52'5 9.5
2018-May-08 09:00N 29°53' W 093°55'4 8.4
2018-May-08 08:31N 29°49' W 093°57'4 7.8
2018-May-08 08:00N 29°46' W 093°55'4 8.2
2018-May-08 07:31N 29°43' W 093°51'5 9.4
2018-May-08 07:01N 29°39' W 093°50'510.3
2018-May-08 06:30N 29°35' W 093°46'510.8
2018-May-08 06:00N 29°31' W 093°41'510.5
2018-May-08 05:30N 29°26' W 093°40'611.6
2018-May-08 05:00N 29°20' W 093°40'611.9
2018-May-08 04:31N 29°14' W 093°40'611.9
2018-May-08 04:00N 29°08' W 093°40'612.4
2018-May-08 03:30N 29°02' W 093°39'612.5
2018-May-08 03:00N 28°56' W 093°37'611.6
2018-May-08 02:30N 28°50' W 093°35'612.1
2018-May-08 02:00N 28°49' W 093°28'611.9
2018-May-08 01:29N 28°47' W 093°22'612.3
2018-May-08 01:01N 28°42' W 093°17'712.2
2018-May-08 00:28N 28°37' W 093°13'2011.5
2018-May-07 22:43N 28°21' W 092°59'311.7
2018-May-07 22:28N 28°20' W 092°56'711.7
2018-May-07 21:52N 28°17' W 092°48'7411.2
2018-May-07 15:17N 28°01' W 091°27'511.6
2018-May-07 14:52N 28°01' W 091°21'45811.7
2018-May-05 23:50N 27°36' W 082°44'412.5
2018-May-05 23:28N 27°37' W 082°40'612.0
2018-May-05 23:00N 27°41' W 082°35'611.4
2018-May-05 22:30N 27°46' W 082°31'510.3
2018-May-05 22:01N 27°49' W 082°27'510.8
2018-May-05 21:30N 27°54' W 082°26'1 2.1
2018-May-05 21:01N 27°54' W 082°25'0 0.0
2018-May-05 20:30N 27°54' W 082°25'0 0.0
2018-May-05 20:00N 27°54' W 082°25'0 0.0
2018-May-05 19:31N 27°54' W 082°25'0 0.0
2018-May-05 19:00N 27°54' W 082°25'0 0.0
2018-May-05 18:31N 27°54' W 082°25'0 0.0
2018-May-05 18:01N 27°54' W 082°25'0 0.0
2018-May-05 17:31N 27°54' W 082°25'0 0.0
2018-May-05 17:00N 27°54' W 082°25'0 0.0
2018-May-05 16:30N 27°54' W 082°25'0 0.0
2018-May-05 16:01N 27°54' W 082°25'0 0.0
2018-May-05 15:30N 27°54' W 082°25'0 0.0
2018-May-05 15:00N 27°54' W 082°25'0 0.0
2018-May-05 14:28N 27°54' W 082°25'0 0.0
2018-May-05 14:00N 27°54' W 082°25'0 0.0
2018-May-05 13:30N 27°54' W 082°25'0 0.0
2018-May-05 13:00N 27°54' W 082°25'0 0.0
2018-May-05 12:31N 27°54' W 082°25'0 0.0
2018-May-05 12:00N 27°54' W 082°25'0 0.0
2018-May-05 11:29N 27°54' W 082°25'0 0.0
2018-May-05 11:00N 27°54' W 082°25'0 0.0
2018-May-05 10:31N 27°54' W 082°25'0 0.0
2018-May-05 10:01N 27°54' W 082°25'0 0.0
2018-May-05 09:30N 27°54' W 082°25'0 0.0
2018-May-05 09:00N 27°54' W 082°25'1 1.3
2018-May-05 08:30N 27°54' W 082°25'4 6.9
2018-May-05 08:00N 27°51' W 082°27'5 9.3
2018-May-05 07:31N 27°47' W 082°30'  
2018-May-02 23:47N 27°42' W 092°49'1610.0
2018-May-02 22:09N 27°42' W 093°08'  

Dump ship's entire track history